createdAt,value
2018-12-17T00:03:06.722Z,43.63
2018-12-17T00:08:13.465Z,41.90
2018-12-17T00:38:13.501Z,46.87
2018-12-17T00:43:17.717Z,45.03
2018-12-17T00:48:22.623Z,46.90
2018-12-17T00:53:27.157Z,47.27
2018-12-17T00:58:32.806Z,48.03
2018-12-17T01:03:37.349Z,45.33
2018-12-17T01:08:43.784Z,44.03
2018-12-17T01:13:48.634Z,45.97
2018-12-17T01:18:53.579Z,48.07
2018-12-17T01:23:58.016Z,46.00
2018-12-17T01:29:03.512Z,46.23
2018-12-17T01:34:07.946Z,47.53
2018-12-17T01:39:25.318Z,48.40
2018-12-17T01:44:30.058Z,50.07
2018-12-17T01:49:34.621Z,50.40
2018-12-17T01:54:39.174Z,46.83
2018-12-17T01:59:43.472Z,49.10
2018-12-17T02:04:48.365Z,48.00
2018-12-17T02:09:52.653Z,49.57
2018-12-17T02:14:57.213Z,50.20
2018-12-17T02:20:02.420Z,46.98
2018-12-17T02:25:07.594Z,51.03
2018-12-17T02:30:15.623Z,52.60
2018-12-17T02:35:20.194Z,49.07
2018-12-17T02:40:51.234Z,51.13
2018-12-17T02:45:56.008Z,47.53
2018-12-17T02:51:00.554Z,48.30
2018-12-17T02:56:05.844Z,48.70
2018-12-17T03:01:10.620Z,50.13
2018-12-17T03:06:15.828Z,50.90
2018-12-17T03:11:20.408Z,52.15
2018-12-17T03:16:25.444Z,54.30
2018-12-17T03:21:29.714Z,49.77
2018-12-17T03:26:34.285Z,47.90
2018-12-17T03:31:38.838Z,46.97
2018-12-17T03:36:43.359Z,46.50
2018-12-17T03:41:51.319Z,50.40
2018-12-17T03:46:55.828Z,49.93
2018-12-17T03:52:00.007Z,48.87
2018-12-17T03:57:05.241Z,45.67
2018-12-17T04:02:10.465Z,47.47
2018-12-17T04:07:15.178Z,49.88
2018-12-17T04:12:20.109Z,47.73
2018-12-17T04:17:24.528Z,46.57
2018-12-17T04:22:28.645Z,47.73
2018-12-17T04:27:33.162Z,54.50
2018-12-17T04:32:38.373Z,48.60
2018-12-17T04:37:42.568Z,44.93
2018-12-17T04:42:54.219Z,49.20
2018-12-17T04:47:58.703Z,53.57
2018-12-17T04:53:05.579Z,49.53
2018-12-17T04:58:10.512Z,49.90
2018-12-17T05:03:15.147Z,46.43
2018-12-17T05:08:20.106Z,51.23
2018-12-17T05:13:25.040Z,53.23
2018-12-17T05:18:29.204Z,48.90
2018-12-17T05:23:33.499Z,46.13
2018-12-17T05:28:37.739Z,47.87
2018-12-17T05:33:42.289Z,49.03
2018-12-17T05:38:47.299Z,46.53
2018-12-17T06:09:17.765Z,47.70
2018-12-17T06:14:21.883Z,50.13
2018-12-17T06:19:26.410Z,47.03
2018-12-17T06:24:31.110Z,46.20
2018-12-17T06:29:35.710Z,46.13
2018-12-17T06:34:40.194Z,46.37
2018-12-17T06:39:44.816Z,47.03
2018-12-17T06:44:49.720Z,49.37
2018-12-17T06:49:54.222Z,47.50
2018-12-17T06:54:59.429Z,49.00
2018-12-17T07:00:05.269Z,46.60
2018-12-17T07:05:11.017Z,44.87
2018-12-17T07:10:45.944Z,47.73
2018-12-17T07:15:50.829Z,44.40
2018-12-17T07:20:55.436Z,48.20
2018-12-17T07:25:59.938Z,49.23
2018-12-17T07:31:05.560Z,48.68
2018-12-17T07:36:10.361Z,47.10
2018-12-17T07:41:14.863Z,46.90
2018-12-17T07:46:19.803Z,45.78
2018-12-17T07:51:24.531Z,48.57
2018-12-17T07:56:28.998Z,46.83
2018-12-17T08:01:33.146Z,50.60
2018-12-17T08:06:37.835Z,45.83
2018-12-17T08:12:15.941Z,49.80
2018-12-17T08:17:20.101Z,47.27
2018-12-17T08:22:25.202Z,44.83
2018-12-17T08:27:29.880Z,46.37
2018-12-17T08:32:34.410Z,45.00
2018-12-17T08:37:38.554Z,44.40
2018-12-17T08:42:42.705Z,50.07
2018-12-17T08:47:47.236Z,43.87
2018-12-17T08:52:52.910Z,56.03
2018-12-17T08:57:57.118Z,44.53
2018-12-17T09:03:01.946Z,51.37
2018-12-17T09:08:06.823Z,44.83
2018-12-17T09:13:45.197Z,47.63
2018-12-17T09:18:49.866Z,51.10
2018-12-17T09:23:54.375Z,47.37
2018-12-17T09:28:58.971Z,42.10
2018-12-17T09:34:04.803Z,41.93
2018-12-17T09:39:09.379Z,51.40
2018-12-17T09:44:15.560Z,54.30
2018-12-17T09:49:20.520Z,53.93
2018-12-17T09:54:24.663Z,47.00
2018-12-17T09:59:28.769Z,52.07
2018-12-17T10:04:33.256Z,52.77
2018-12-17T10:09:37.427Z,56.17
2018-12-17T10:15:09.563Z,48.87
2018-12-17T10:20:14.122Z,53.73
2018-12-17T10:25:18.953Z,50.23
2018-12-17T10:30:24.123Z,55.20
2018-12-17T10:35:28.612Z,56.43
2018-12-17T10:40:35.478Z,53.70
2018-12-17T10:45:40.561Z,54.43
2018-12-17T10:50:44.651Z,52.67
2018-12-17T10:55:49.150Z,53.90
2018-12-17T11:00:59.295Z,49.00
2018-12-17T11:06:09.772Z,50.70
2018-12-17T11:11:14.757Z,56.05
2018-12-17T11:16:40.009Z,48.80
2018-12-17T11:21:45.160Z,50.17
2018-12-17T11:26:49.629Z,52.97
2018-12-17T11:31:54.043Z,50.93
2018-12-17T11:36:58.419Z,50.67
2018-12-17T11:42:02.847Z,49.90
2018-12-17T11:47:07.703Z,53.67
2018-12-17T11:52:12.192Z,51.17
2018-12-17T11:58:23.066Z,46.67
2018-12-17T12:03:30.508Z,54.40
2018-12-17T12:08:34.986Z,50.70
2018-12-17T12:13:39.075Z,54.70
2018-12-17T12:25:08.814Z,51.40
2018-12-17T12:30:14.115Z,49.93
2018-12-17T12:35:18.603Z,51.77
2018-12-17T12:40:23.177Z,48.97
2018-12-17T12:45:27.624Z,58.23
2018-12-17T12:50:32.096Z,53.83
2018-12-17T12:55:36.180Z,48.10
2018-12-17T13:00:40.524Z,54.97
2018-12-17T13:05:44.726Z,53.93
2018-12-17T13:10:48.846Z,53.47
2018-12-17T13:15:52.961Z,51.40
2018-12-17T13:20:57.060Z,50.37
2018-12-17T13:26:35.814Z,50.13
2018-12-17T13:31:39.933Z,46.47
2018-12-17T13:36:44.401Z,52.17
2018-12-17T13:41:48.991Z,46.73
2018-12-17T13:46:53.787Z,48.85
2018-12-17T13:52:03.565Z,51.53
2018-12-17T13:57:08.053Z,50.07
2018-12-17T14:02:12.664Z,54.77
2018-12-17T14:07:17.151Z,47.83
2018-12-17T14:12:21.714Z,50.57
2018-12-17T14:17:31.616Z,46.57
2018-12-17T14:22:35.690Z,48.37
2018-12-17T14:34:02.895Z,49.77
2018-12-17T14:39:09.896Z,52.80
2018-12-17T14:44:19.818Z,48.67
2018-12-17T14:49:23.925Z,53.27
2018-12-17T14:54:28.411Z,48.83
2018-12-17T14:59:32.493Z,52.53
2018-12-17T15:04:36.585Z,49.43
2018-12-17T15:09:41.065Z,50.80
2018-12-17T15:14:45.867Z,46.77
2018-12-17T15:19:51.091Z,46.33
2018-12-17T15:24:55.191Z,48.13
2018-12-17T15:29:59.556Z,47.77
2018-12-17T15:59:39.579Z,41.83
2018-12-17T16:04:44.334Z,40.73
2018-12-17T16:09:50.895Z,42.73
2018-12-17T16:14:54.995Z,39.83
2018-12-17T16:19:59.439Z,36.97
2018-12-17T16:25:04.699Z,35.73
2018-12-17T16:30:11.301Z,43.47
2018-12-17T16:35:17.474Z,42.60
2018-12-17T16:40:22.760Z,47.27
2018-12-17T16:45:27.335Z,44.50
2018-12-17T16:50:32.972Z,46.10
2018-12-17T17:08:10.198Z,46.53
2018-12-17T17:13:15.186Z,43.95
2018-12-17T17:18:19.608Z,44.07
2018-12-17T17:23:25.394Z,46.33
2018-12-17T17:28:29.492Z,48.63
2018-12-17T17:33:34.533Z,52.73
2018-12-17T17:38:39.835Z,50.87
2018-12-17T17:43:44.346Z,50.17
2018-12-17T17:48:50.068Z,48.50
2018-12-17T17:53:54.917Z,48.00
2018-12-17T17:59:00.320Z,47.57
2018-12-17T18:04:05.255Z,50.70
2018-12-17T18:09:33.934Z,48.73
2018-12-17T18:14:38.390Z,48.33
2018-12-17T18:19:44.318Z,46.17
2018-12-17T18:24:49.319Z,51.13
2018-12-17T18:29:53.558Z,48.40
2018-12-17T18:34:58.074Z,50.27
2018-12-17T18:40:02.995Z,46.57
2018-12-17T18:45:08.361Z,46.00
2018-12-17T18:50:13.667Z,47.95
2018-12-17T18:55:17.794Z,42.67
2018-12-17T19:00:22.365Z,45.83
2018-12-17T19:05:27.158Z,47.13
2018-12-17T20:18:22.396Z,45.23
2018-12-17T20:23:27.118Z,40.37
2018-12-17T20:28:31.582Z,46.13
2018-12-17T20:33:36.469Z,52.60
2018-12-17T20:38:40.648Z,44.10
2018-12-17T20:43:44.795Z,40.63
2018-12-17T20:48:48.910Z,46.70
2018-12-17T20:53:53.862Z,44.83
2018-12-17T20:58:58.428Z,42.60
2018-12-17T21:04:02.912Z,41.30
2018-12-17T21:09:08.467Z,40.90
2018-12-17T21:32:52.196Z,45.80
2018-12-17T21:37:57.140Z,41.40
2018-12-17T21:43:01.973Z,43.47
2018-12-17T21:48:06.464Z,38.57
2018-12-17T21:53:11.851Z,39.67
2018-12-17T21:58:15.925Z,38.23
2018-12-17T22:03:20.430Z,37.20
2018-12-17T22:08:24.950Z,37.63
2018-12-17T22:13:29.546Z,39.87
2018-12-17T22:18:34.989Z,40.70
2018-12-17T22:23:39.099Z,40.47
2018-12-17T22:28:44.261Z,39.30
2018-12-17T22:40:25.652Z,36.43
2018-12-17T22:45:30.579Z,40.70
2018-12-17T22:50:34.693Z,35.27
2018-12-17T22:55:39.150Z,38.13
2018-12-17T23:00:44.967Z,36.03
2018-12-17T23:05:51.545Z,40.60
2018-12-17T23:11:07.309Z,37.67
2018-12-17T23:16:23.201Z,35.98
2018-12-17T23:21:28.093Z,38.00
2018-12-17T23:26:34.652Z,32.57
2018-12-17T23:31:39.547Z,39.63
2018-12-17T23:36:44.629Z,40.63
2018-12-17T23:48:47.829Z,36.70
2018-12-17T23:53:52.347Z,32.53
2018-12-17T23:58:56.575Z,31.97
